Aviation Digital Data Service (ADDS)

Output produced by METARs form (2228 UTC 01 December 2021)
found at http://aviationweather.gov/metar/data/
 
KSHV 011720Z 0118/0218 21012G19KT P6SM SKC 
     FM020000 24005KT P6SM FEW250 
     FM020900 25004KT 6SM BR SKC 
     FM021200 VRB03KT P6SM SKC